createdAt,value
2019-05-22T00:00:27.102Z,-149
2019-05-22T00:00:57.363Z,-147
2019-05-22T00:01:27.299Z,-149
2019-05-22T00:01:57.433Z,-147
2019-05-22T00:02:27.332Z,-149
2019-05-22T00:02:57.287Z,-149
2019-05-22T00:03:27.235Z,-149
2019-05-22T00:03:57.239Z,-147
2019-05-22T00:04:27.286Z,-148
2019-05-22T00:04:57.618Z,-150
2019-05-22T00:05:27.407Z,-150
2019-05-22T00:05:57.433Z,-148
2019-05-22T00:06:27.480Z,-149
2019-05-22T00:06:57.331Z,-149
2019-05-22T00:07:27.279Z,-150
2019-05-22T00:07:57.294Z,-149
2019-05-22T00:08:27.316Z,-149
2019-05-22T00:08:57.542Z,-152
2019-05-22T00:09:27.403Z,-152
2019-05-22T00:09:57.532Z,-148
2019-05-22T00:10:27.527Z,-148
2019-05-22T00:10:57.376Z,-151
2019-05-22T00:11:27.411Z,-149
2019-05-22T00:11:57.466Z,-149
2019-05-22T00:12:27.425Z,-149
2019-05-22T00:12:57.526Z,-149
2019-05-22T00:13:27.446Z,-149
2019-05-22T00:13:57.446Z,-149
2019-05-22T00:14:27.595Z,-148
2019-05-22T00:14:57.489Z,-149
2019-05-22T00:15:27.493Z,-149
2019-05-22T00:15:57.647Z,-148
2019-05-22T00:16:27.526Z,-148
2019-05-22T00:16:57.583Z,-149
2019-05-22T00:17:27.609Z,-148
2019-05-22T00:17:57.669Z,-147
2019-05-22T00:18:27.577Z,-146
2019-05-22T00:18:57.621Z,-146
2019-05-22T00:19:27.567Z,-146
2019-05-22T00:19:57.755Z,-147
2019-05-22T00:20:27.652Z,-147
2019-05-22T00:20:57.799Z,-146
2019-05-22T00:21:27.853Z,-146
2019-05-22T00:21:57.815Z,-148
2019-05-22T00:22:27.793Z,-148
2019-05-22T00:22:57.789Z,-148
2019-05-22T00:23:27.711Z,-146
2019-05-22T00:23:57.758Z,-146
2019-05-22T00:24:27.770Z,-147
2019-05-22T00:24:57.884Z,-147
2019-05-22T00:25:28.106Z,-149
2019-05-22T00:25:57.952Z,-148
2019-05-22T00:26:27.959Z,-147
2019-05-22T00:26:57.998Z,-147
2019-05-22T00:27:27.925Z,-150
2019-05-22T00:27:57.868Z,-148
2019-05-22T00:28:27.859Z,-148
2019-05-22T00:28:58.046Z,-148
2019-05-22T00:29:28.186Z,-148
2019-05-22T00:29:58.037Z,-148
2019-05-22T00:30:28.023Z,-148
2019-05-22T00:30:57.976Z,-149
2019-05-22T00:31:27.956Z,-149
2019-05-22T00:31:58.011Z,-149
2019-05-22T00:32:28.023Z,-150
2019-05-22T00:32:58.071Z,-149
2019-05-22T00:33:27.977Z,-149
2019-05-22T00:33:58.007Z,-148
2019-05-22T00:34:27.990Z,-149
2019-05-22T00:34:57.948Z,-149
2019-05-22T00:35:27.979Z,-148
2019-05-22T00:35:58.023Z,-148
2019-05-22T00:36:28.062Z,-148
2019-05-22T00:36:58.076Z,-147
2019-05-22T00:37:28.148Z,-149
2019-05-22T00:37:58.170Z,-149
2019-05-22T00:38:28.159Z,-150
2019-05-22T00:38:58.102Z,-147
2019-05-22T00:39:28.139Z,-147
2019-05-22T00:39:58.171Z,-149
2019-05-22T00:40:28.166Z,-147
2019-05-22T00:40:58.182Z,-147
2019-05-22T00:41:28.263Z,-147
2019-05-22T00:41:58.408Z,-149
2019-05-22T00:42:28.330Z,-149
2019-05-22T00:43:03.965Z,-149
2019-05-22T00:43:28.221Z,-147
2019-05-22T00:43:58.273Z,-148
2019-05-22T00:44:28.253Z,-150
2019-05-22T00:44:58.295Z,-148
2019-05-22T00:45:28.341Z,-150
2019-05-22T00:45:58.516Z,-149
2019-05-22T00:46:28.500Z,-149
2019-05-22T00:46:58.330Z,-149
2019-05-22T00:47:28.425Z,-148
2019-05-22T00:47:58.334Z,-148
2019-05-22T00:48:28.326Z,-152
2019-05-22T00:48:58.435Z,-148
2019-05-22T00:49:28.682Z,-149
2019-05-22T00:49:58.479Z,-149
2019-05-22T00:50:28.547Z,-148
2019-05-22T00:50:58.465Z,-148
2019-05-22T00:51:28.480Z,-149
2019-05-22T00:51:58.433Z,-146
2019-05-22T00:52:28.470Z,-148
2019-05-22T00:52:58.448Z,-150
2019-05-22T00:53:28.432Z,-150
2019-05-22T00:53:58.630Z,-149
2019-05-22T00:54:28.438Z,-148
2019-05-22T00:54:58.473Z,-148
2019-05-22T00:55:28.457Z,-148
2019-05-22T00:55:58.481Z,-149
2019-05-22T00:56:28.509Z,-148
2019-05-22T00:56:58.697Z,-150
2019-05-22T00:57:28.584Z,-151
2019-05-22T00:57:58.627Z,-151
2019-05-22T00:58:28.633Z,-149
2019-05-22T00:58:58.638Z,-163
2019-05-22T00:59:28.700Z,-163
2019-05-22T00:59:58.695Z,-174
2019-05-22T01:00:28.690Z,-174
2019-05-22T01:00:58.811Z,-153
2019-05-22T01:01:28.794Z,-151
2019-05-22T01:01:58.899Z,-151
2019-05-22T01:02:28.914Z,-151
2019-05-22T01:02:58.772Z,-149
2019-05-22T01:03:28.756Z,-149
2019-05-22T01:03:58.752Z,-149
2019-05-22T01:04:28.775Z,-151
2019-05-22T01:04:58.983Z,-151
2019-05-22T01:05:29.054Z,-150
2019-05-22T01:05:59.116Z,-153
2019-05-22T01:06:29.023Z,-149
2019-05-22T01:06:58.951Z,-149
2019-05-22T01:07:28.932Z,-152
2019-05-22T01:07:58.915Z,-152
2019-05-22T01:08:28.948Z,-151
2019-05-22T01:08:59.189Z,-151
2019-05-22T01:09:29.233Z,-151
2019-05-22T01:10:29.152Z,-153
2019-05-22T01:10:59.154Z,-153
2019-05-22T01:11:29.091Z,-151
2019-05-22T01:11:59.116Z,-151
2019-05-22T01:12:29.081Z,-150
2019-05-22T01:12:59.061Z,-151
2019-05-22T01:13:29.062Z,-151
2019-05-22T01:13:59.072Z,-151
2019-05-22T01:14:41.855Z,-150
2019-05-22T01:14:59.070Z,-150
2019-05-22T01:15:29.220Z,-152
2019-05-22T01:15:59.252Z,-152
2019-05-22T01:16:29.148Z,-152
2019-05-22T01:16:59.135Z,-152
2019-05-22T01:17:29.279Z,-151
2019-05-22T01:17:59.377Z,-151
2019-05-22T01:18:29.237Z,-151
2019-05-22T01:18:59.175Z,-151
2019-05-22T01:19:29.259Z,-151
2019-05-22T01:19:59.257Z,-151
2019-05-22T01:20:29.324Z,-150
2019-05-22T01:20:59.489Z,-152
2019-05-22T01:21:29.373Z,-152
2019-05-22T01:21:59.399Z,-152
2019-05-22T01:22:29.473Z,-149
2019-05-22T01:22:59.347Z,-149
2019-05-22T01:23:29.386Z,-151
2019-05-22T01:23:59.362Z,-151
2019-05-22T01:24:29.315Z,-149
2019-05-22T01:24:59.501Z,-149
2019-05-22T01:25:29.481Z,-150
2019-05-22T01:25:59.603Z,-150
2019-05-22T01:26:29.509Z,-150
2019-05-22T01:26:59.546Z,-150
2019-05-22T01:27:29.428Z,-150
2019-05-22T01:27:59.431Z,-151
2019-05-22T01:28:29.586Z,-150
2019-05-22T01:28:59.827Z,-150
2019-05-22T01:29:29.632Z,-148
2019-05-22T01:29:59.684Z,-148
2019-05-22T01:30:29.677Z,-148
2019-05-22T01:30:59.726Z,-150
2019-05-22T01:31:29.803Z,-149
2019-05-22T01:31:59.563Z,-149
2019-05-22T01:32:29.586Z,-148
2019-05-22T01:32:59.617Z,-148
2019-05-22T01:33:29.598Z,-147
2019-05-22T01:33:59.630Z,-147
2019-05-22T01:34:29.648Z,-147
2019-05-22T01:34:59.607Z,-147
2019-05-22T01:35:29.646Z,-147
2019-05-22T01:35:59.701Z,-147
2019-05-22T01:36:29.684Z,-148
2019-05-22T01:36:59.737Z,-148
2019-05-22T01:37:29.817Z,-148
2019-05-22T01:37:59.731Z,-148
2019-05-22T01:38:29.733Z,-148
2019-05-22T01:38:59.802Z,-150
2019-05-22T01:39:29.717Z,-150
2019-05-22T01:39:59.812Z,-146
2019-05-22T01:40:29.726Z,-148
2019-05-22T01:41:29.879Z,-148
2019-05-22T01:41:59.974Z,-149
2019-05-22T01:42:30.046Z,-149
2019-05-22T01:43:00.036Z,-147
2019-05-22T01:43:29.917Z,-148
2019-05-22T01:43:59.899Z,-144
2019-05-22T01:44:29.915Z,-144
2019-05-22T01:45:05.484Z,-147
2019-05-22T01:45:29.969Z,-147
2019-05-22T01:46:00.071Z,-146
2019-05-22T01:46:30.051Z,-146
2019-05-22T01:47:00.142Z,-148
2019-05-22T01:47:30.071Z,-148
2019-05-22T01:48:00.132Z,-148
2019-05-22T01:48:30.038Z,-151
2019-05-22T01:49:00.233Z,-148
2019-05-22T01:49:30.132Z,-148
2019-05-22T01:50:00.235Z,-149
2019-05-22T01:50:30.226Z,-149
2019-05-22T01:51:00.423Z,-150
2019-05-22T01:51:30.117Z,-149
2019-05-22T01:52:00.093Z,-149
2019-05-22T01:52:30.062Z,-149
2019-05-22T01:53:00.041Z,-149
2019-05-22T01:53:30.162Z,-149
2019-05-22T01:54:00.146Z,-149
2019-05-22T01:54:30.132Z,-149
2019-05-22T01:55:00.139Z,-146
2019-05-22T01:55:30.120Z,-146
2019-05-22T01:56:00.178Z,-146
2019-05-22T01:56:30.232Z,-148
2019-05-22T01:57:00.178Z,-148
2019-05-22T01:57:30.224Z,-150
2019-05-22T01:58:00.261Z,-147
2019-05-22T01:58:30.332Z,-149
2019-05-22T01:59:00.247Z,-149
2019-05-22T01:59:30.308Z,-148
2019-05-22T02:00:00.241Z,-148
2019-05-22T02:00:30.236Z,-150
2019-05-22T02:01:30.463Z,-148
2019-05-22T02:02:00.458Z,-147
2019-05-22T02:02:30.418Z,-147
2019-05-22T02:03:00.569Z,-148
2019-05-22T02:03:30.465Z,-148
2019-05-22T02:04:00.491Z,-152
2019-05-22T02:04:30.376Z,-152
2019-05-22T02:05:00.493Z,-151
2019-05-22T02:05:30.583Z,-151
2019-05-22T02:06:00.716Z,-147
2019-05-22T02:06:30.689Z,-149
2019-05-22T02:07:00.531Z,-149
2019-05-22T02:07:30.465Z,-148
2019-05-22T02:08:00.551Z,-148
2019-05-22T02:08:30.521Z,-145
2019-05-22T02:09:00.612Z,-145
2019-05-22T02:09:30.967Z,-149
2019-05-22T02:10:00.840Z,-146
2019-05-22T02:10:30.730Z,-147
2019-05-22T02:11:00.680Z,-147
2019-05-22T02:11:30.701Z,-146
2019-05-22T02:12:00.609Z,-147
2019-05-22T02:12:30.615Z,-148
2019-05-22T02:13:00.670Z,-148
2019-05-22T02:13:30.786Z,-147
2019-05-22T02:14:00.815Z,-145
2019-05-22T02:14:30.730Z,-145
2019-05-22T02:15:00.751Z,-145
2019-05-22T02:15:30.715Z,-146
2019-05-22T02:16:00.774Z,-145
2019-05-22T02:16:30.786Z,-147
2019-05-22T02:17:00.691Z,-147
2019-05-22T02:17:30.751Z,-146
2019-05-22T02:18:00.810Z,-146
2019-05-22T02:18:30.745Z,-148
2019-05-22T02:19:00.850Z,-148
2019-05-22T02:19:30.825Z,-147
2019-05-22T02:20:00.715Z,-147
2019-05-22T02:20:30.963Z,-146
2019-05-22T02:21:01.046Z,-146
2019-05-22T02:21:31.090Z,-149
2019-05-22T02:22:00.939Z,-148
2019-05-22T02:22:31.044Z,-148
2019-05-22T02:23:00.835Z,-149
2019-05-22T02:23:30.795Z,-148
2019-05-22T02:24:00.909Z,-147
2019-05-22T02:24:31.091Z,-148
2019-05-22T02:25:00.957Z,-148
2019-05-22T02:25:30.922Z,-147
2019-05-22T02:26:01.081Z,-148
2019-05-22T02:26:31.056Z,-147
2019-05-22T02:27:00.874Z,-148
2019-05-22T02:27:31.003Z,-148
2019-05-22T02:28:00.887Z,-148
2019-05-22T02:28:30.875Z,-149
2019-05-22T02:29:01.077Z,-149
2019-05-22T02:29:31.097Z,-148
2019-05-22T02:30:01.104Z,-147
2019-05-22T02:30:31.238Z,-147
2019-05-22T02:31:01.047Z,-147
2019-05-22T02:31:31.077Z,-149
2019-05-22T02:32:01.003Z,-148
2019-05-22T02:32:31.022Z,-149
2019-05-22T02:33:01.042Z,-149
2019-05-22T02:33:31.024Z,-149
2019-05-22T02:34:01.032Z,-148
2019-05-22T02:34:31.184Z,-148
2019-05-22T02:35:01.178Z,-149
2019-05-22T02:35:31.121Z,-151
2019-05-22T02:36:01.197Z,-148
2019-05-22T02:36:31.287Z,-148
2019-05-22T02:37:01.246Z,-148
2019-05-22T02:37:31.254Z,-148
2019-05-22T02:38:01.200Z,-146
2019-05-22T02:38:31.379Z,-146
2019-05-22T02:39:01.287Z,-148
2019-05-22T02:39:31.277Z,-148
2019-05-22T02:40:01.261Z,-146
2019-05-22T02:40:31.321Z,-146
2019-05-22T02:41:01.327Z,-151
2019-05-22T02:41:31.291Z,-151
2019-05-22T02:42:01.518Z,-151
2019-05-22T02:42:31.475Z,-150
2019-05-22T02:43:01.448Z,-147
2019-05-22T02:43:31.420Z,-149
2019-05-22T02:44:01.312Z,-150
2019-05-22T02:44:31.406Z,-150
2019-05-22T02:45:01.478Z,-148
2019-05-22T02:45:31.800Z,-148
2019-05-22T02:46:01.501Z,-146
2019-05-22T02:46:31.923Z,-145
2019-05-22T02:47:17.593Z,-147
2019-05-22T02:47:31.601Z,-147
2019-05-22T02:48:01.593Z,-146
2019-05-22T02:48:31.481Z,-149
2019-05-22T02:49:01.566Z,-149
2019-05-22T02:49:31.633Z,-148
2019-05-22T02:50:01.689Z,-148
2019-05-22T02:50:31.910Z,-146
2019-05-22T02:51:01.730Z,-148
2019-05-22T02:51:31.657Z,-146
2019-05-22T02:52:01.597Z,-149
2019-05-22T02:52:31.586Z,-146
2019-05-22T02:53:01.724Z,-146
2019-05-22T02:53:31.586Z,-147
2019-05-22T02:54:01.647Z,-146
2019-05-22T02:54:31.689Z,-146
2019-05-22T02:55:01.721Z,-146
2019-05-22T02:55:31.656Z,-146
2019-05-22T02:56:01.673Z,-147
2019-05-22T02:56:31.722Z,-144
2019-05-22T02:57:01.805Z,-144
2019-05-22T02:57:31.848Z,-142
2019-05-22T02:58:01.722Z,-150
2019-05-22T02:58:32.010Z,-147
2019-05-22T02:59:01.755Z,-147
2019-05-22T02:59:31.832Z,-147
2019-05-22T03:00:01.808Z,-153
2019-05-22T03:00:31.789Z,-165
2019-05-22T03:01:02.095Z,-148
2019-05-22T03:01:32.052Z,-147
2019-05-22T03:02:01.993Z,-145
2019-05-22T03:02:32.094Z,-147
2019-05-22T03:03:01.935Z,-147
2019-05-22T03:03:31.969Z,-146
2019-05-22T03:04:02.049Z,-147
2019-05-22T03:04:31.951Z,-147
2019-05-22T03:05:02.256Z,-148
2019-05-22T03:05:32.092Z,-147
2019-05-22T03:06:02.146Z,-147
2019-05-22T03:07:02.482Z,-148
2019-05-22T03:07:32.206Z,-147
2019-05-22T03:08:02.244Z,-148
2019-05-22T03:08:32.157Z,-147
2019-05-22T03:09:02.314Z,-149
2019-05-22T03:09:32.297Z,-147
2019-05-22T03:10:02.543Z,-145
2019-05-22T03:10:32.349Z,-145
2019-05-22T03:11:02.454Z,-147
2019-05-22T03:11:35.145Z,-146
2019-05-22T03:12:02.295Z,-146
2019-05-22T03:12:32.270Z,-145
2019-05-22T03:13:02.313Z,-148
2019-05-22T03:13:32.244Z,-148
2019-05-22T03:14:02.304Z,-149
2019-05-22T03:14:32.329Z,-147
2019-05-22T03:15:02.628Z,-147
2019-05-22T03:15:32.273Z,-149
2019-05-22T03:16:02.409Z,-146
2019-05-22T03:16:32.345Z,-146
2019-05-22T03:17:02.374Z,-146
2019-05-22T03:17:32.483Z,-147
2019-05-22T03:18:02.371Z,-147
2019-05-22T03:18:32.423Z,-149
2019-05-22T03:19:08.593Z,-148
2019-05-22T03:19:32.454Z,-147
2019-05-22T03:20:02.682Z,-147
2019-05-22T03:20:32.479Z,-148
2019-05-22T03:21:02.492Z,-148
2019-05-22T03:21:32.740Z,-148
2019-05-22T03:22:02.611Z,-146
2019-05-22T03:22:32.699Z,-147
2019-05-22T03:23:02.704Z,-147
2019-05-22T03:24:02.667Z,-148
2019-05-22T03:24:32.623Z,-148
2019-05-22T03:25:02.668Z,-147
2019-05-22T03:26:02.737Z,-149
2019-05-22T03:26:32.732Z,-148
2019-05-22T03:27:02.880Z,-148
2019-05-22T03:27:32.761Z,-147
2019-05-22T03:28:02.756Z,-146
2019-05-22T03:28:32.734Z,-148
2019-05-22T03:29:02.758Z,-149
2019-05-22T03:29:32.952Z,-149
2019-05-22T03:30:02.908Z,-148
2019-05-22T03:30:33.008Z,-148
2019-05-22T03:32:02.900Z,-148
2019-05-22T03:32:32.855Z,-147
2019-05-22T03:33:02.846Z,-147
2019-05-22T03:33:32.847Z,-147
2019-05-22T03:34:02.897Z,-146
2019-05-22T03:34:32.829Z,-149
2019-05-22T03:35:02.885Z,-149
2019-05-22T03:35:32.870Z,-146
2019-05-22T03:36:02.891Z,-147
2019-05-22T03:36:32.967Z,-147
2019-05-22T03:37:02.920Z,-147
2019-05-22T03:37:32.887Z,-148
2019-05-22T03:38:02.953Z,-145
2019-05-22T03:38:32.982Z,-146
2019-05-22T03:39:02.965Z,-146
2019-05-22T03:39:33.188Z,-149
2019-05-22T03:40:03.023Z,-149
2019-05-22T03:40:33.017Z,-150
2019-05-22T03:41:02.996Z,-149
2019-05-22T03:41:33.021Z,-149
2019-05-22T03:42:33.132Z,-147
2019-05-22T03:43:33.232Z,-149
2019-05-22T03:44:03.145Z,-145
2019-05-22T03:44:33.193Z,-145
2019-05-22T03:45:03.199Z,-146
2019-05-22T03:45:33.189Z,-149
2019-05-22T03:46:03.278Z,-149
2019-05-22T03:46:33.284Z,-147
2019-05-22T03:48:03.201Z,-146
2019-05-22T03:48:33.222Z,-147
2019-05-22T03:49:03.208Z,-149
2019-05-22T03:49:33.296Z,-147
2019-05-22T03:50:03.407Z,-147
2019-05-22T03:51:33.527Z,-148
2019-05-22T03:52:03.281Z,-148
2019-05-22T03:52:33.351Z,-147
2019-05-22T03:53:03.341Z,-148
2019-05-22T03:53:33.301Z,-148
2019-05-22T03:54:03.374Z,-149
2019-05-22T03:54:33.324Z,-151
2019-05-22T03:55:03.437Z,-147
2019-05-22T03:55:33.342Z,-145
2019-05-22T03:56:03.352Z,-147
2019-05-22T03:56:33.436Z,-147
2019-05-22T03:57:03.370Z,-147
2019-05-22T03:57:33.433Z,-149
2019-05-22T03:58:03.555Z,-149
2019-05-22T03:58:33.401Z,-147
2019-05-22T03:59:03.431Z,-149
2019-05-22T03:59:33.484Z,-149
2019-05-22T04:00:03.471Z,-147
2019-05-22T04:00:33.517Z,-147
2019-05-22T04:01:03.504Z,-146
2019-05-22T04:01:33.544Z,-145
2019-05-22T04:02:03.660Z,-145
2019-05-22T04:02:33.612Z,-146
2019-05-22T04:03:03.703Z,-148
2019-05-22T04:03:03.768Z,-147
2019-05-22T04:05:33.774Z,-147
2019-05-22T04:06:33.765Z,-147
2019-05-22T04:07:03.724Z,-147
2019-05-22T04:09:03.743Z,-136
2019-05-22T04:09:33.753Z,-137
2019-05-22T04:10:03.911Z,-148
2019-05-22T04:10:33.911Z,-147
2019-05-22T04:11:03.974Z,-150
2019-05-22T04:12:03.782Z,-136
2019-05-22T04:12:33.803Z,-136
2019-05-22T04:13:03.818Z,-138
2019-05-22T04:13:33.776Z,-135
2019-05-22T04:14:03.775Z,-135
2019-05-22T04:14:33.859Z,-137
2019-05-22T04:15:03.869Z,-136
2019-05-22T04:15:33.855Z,-136
2019-05-22T04:16:03.881Z,-149
2019-05-22T04:16:33.891Z,-149
2019-05-22T04:17:03.860Z,-139
2019-05-22T04:17:33.911Z,-140
2019-05-22T04:18:03.906Z,-140
2019-05-22T04:18:33.909Z,-138
2019-05-22T04:19:03.964Z,-136
2019-05-22T04:19:48.152Z,-135
2019-05-22T04:20:03.997Z,-135
2019-05-22T04:20:33.996Z,-136
2019-05-22T04:21:03.965Z,-136
2019-05-22T04:21:34.035Z,-139
2019-05-22T04:22:04.087Z,-138
2019-05-22T04:22:34.230Z,-134
2019-05-22T04:23:04.179Z,-135
2019-05-22T04:23:34.031Z,-135
2019-05-22T04:24:04.099Z,-135
2019-05-22T04:24:34.048Z,-132
2019-05-22T04:25:04.080Z,-132
2019-05-22T04:25:34.233Z,-133
2019-05-22T04:26:04.147Z,-133
2019-05-22T04:26:34.286Z,-150
2019-05-22T04:27:04.224Z,-149
2019-05-22T04:27:34.156Z,-146
2019-05-22T04:28:04.157Z,-150
2019-05-22T04:28:34.139Z,-135
2019-05-22T04:29:04.155Z,-134
2019-05-22T04:29:34.238Z,-134
2019-05-22T04:30:04.294Z,-134
2019-05-22T04:30:34.500Z,-132
2019-05-22T04:31:04.444Z,-159
2019-05-22T04:31:34.194Z,-159
2019-05-22T04:32:04.221Z,-172
2019-05-22T04:32:34.182Z,-176
2019-05-22T04:33:04.211Z,-176
2019-05-22T04:33:34.188Z,-174
2019-05-22T04:34:04.224Z,-175
2019-05-22T04:34:34.276Z,-173
2019-05-22T04:35:04.290Z,-129
2019-05-22T04:35:34.240Z,-126
2019-05-22T04:36:04.470Z,-128
2019-05-22T04:36:34.239Z,-131
2019-05-22T04:37:04.313Z,-131
2019-05-22T04:37:34.392Z,-129
2019-05-22T04:38:04.344Z,-127
2019-05-22T04:38:34.401Z,-127
2019-05-22T04:39:04.476Z,-125
2019-05-22T04:39:34.336Z,-125
2019-05-22T04:40:04.366Z,-126
2019-05-22T04:40:34.319Z,-123
2019-05-22T04:41:04.451Z,-121
2019-05-22T04:41:34.682Z,-124
2019-05-22T04:42:04.607Z,-122
2019-05-22T04:42:34.634Z,-123
2019-05-22T04:43:34.475Z,-117
2019-05-22T04:44:04.506Z,-149
2019-05-22T04:44:34.507Z,-132
2019-05-22T04:45:04.698Z,-120
2019-05-22T04:45:34.540Z,-117
2019-05-22T04:46:04.783Z,-114
2019-05-22T04:46:34.765Z,-114
2019-05-22T04:47:04.680Z,-112
2019-05-22T04:47:34.555Z,-109
2019-05-22T04:48:04.664Z,-109
2019-05-22T04:48:34.590Z,-109
2019-05-22T04:49:04.799Z,-108
2019-05-22T04:49:34.647Z,-107
2019-05-22T04:50:07.764Z,-109
2019-05-22T04:50:34.808Z,-107
2019-05-22T04:51:04.686Z,-107
2019-05-22T04:51:34.659Z,-107
2019-05-22T04:52:04.723Z,-107
2019-05-22T04:52:34.716Z,-107
2019-05-22T04:53:04.684Z,-107
2019-05-22T04:53:34.713Z,-107
2019-05-22T04:54:04.691Z,-106
2019-05-22T04:54:34.661Z,-106
2019-05-22T04:55:04.705Z,-106
2019-05-22T04:55:34.784Z,-106
2019-05-22T04:56:04.763Z,-104
2019-05-22T04:56:34.744Z,-104
2019-05-22T04:57:04.846Z,-105
2019-05-22T04:57:34.768Z,-106
2019-05-22T04:58:04.907Z,-104
2019-05-22T04:58:34.849Z,-101
2019-05-22T04:59:04.886Z,-100
2019-05-22T04:59:34.910Z,-104
2019-05-22T05:00:04.913Z,-100
2019-05-22T05:00:34.952Z,-159
2019-05-22T05:01:05.012Z,-139
2019-05-22T05:01:35.199Z,-137
2019-05-22T05:02:05.069Z,-111
2019-05-22T05:02:35.082Z,-94
2019-05-22T05:03:05.011Z,-92
2019-05-22T05:03:35.042Z,-92
2019-05-22T05:04:04.965Z,-93
2019-05-22T05:04:35.009Z,-90
2019-05-22T05:05:35.264Z,-91
2019-05-22T05:06:06.760Z,-91
2019-05-22T05:06:35.164Z,-87
2019-05-22T05:07:05.115Z,-86
2019-05-22T05:07:35.040Z,-86
2019-05-22T05:08:05.033Z,-83
2019-05-22T05:08:35.043Z,-82
2019-05-22T05:09:05.267Z,-81
2019-05-22T05:09:35.224Z,-78
2019-05-22T05:10:05.399Z,-79
2019-05-22T05:10:35.289Z,-74
2019-05-22T05:11:05.266Z,-73
2019-05-22T05:11:35.240Z,-70
2019-05-22T05:12:05.217Z,86
2019-05-22T05:12:35.151Z,-67
2019-05-22T05:13:05.158Z,-66
2019-05-22T05:13:35.171Z,-59
2019-05-22T05:14:05.155Z,-53
2019-05-22T05:14:35.287Z,-53
2019-05-22T05:15:05.338Z,-54
2019-05-22T05:15:37.202Z,-55
2019-05-22T05:16:05.301Z,-54
2019-05-22T05:16:35.465Z,-53
2019-05-22T05:17:05.268Z,-53
2019-05-22T05:17:35.349Z,-50
2019-05-22T05:18:05.314Z,-126
2019-05-22T05:18:35.531Z,-101
2019-05-22T05:19:05.483Z,-99
2019-05-22T05:19:35.495Z,-72
2019-05-22T05:20:05.488Z,-51
2019-05-22T05:20:35.599Z,-51
2019-05-22T05:21:05.623Z,-52
2019-05-22T05:21:35.592Z,-48
2019-05-22T05:22:05.691Z,-52
2019-05-22T05:22:35.766Z,-66
2019-05-22T05:23:05.650Z,-64
2019-05-22T05:23:35.636Z,-60
2019-05-22T05:24:05.628Z,-55
2019-05-22T05:24:35.750Z,-54
2019-05-22T05:25:05.796Z,-53
2019-05-22T05:25:35.819Z,-51
2019-05-22T05:26:35.681Z,-53
2019-05-22T05:27:05.673Z,-49
2019-05-22T05:27:35.664Z,-49
2019-05-22T05:28:05.655Z,-54
2019-05-22T05:28:35.765Z,-52
2019-05-22T05:29:05.802Z,-54
2019-05-22T05:29:35.840Z,-49
2019-05-22T05:30:05.931Z,-49
2019-05-22T05:30:35.749Z,-50
2019-05-22T05:31:05.847Z,-47
2019-05-22T05:31:35.772Z,-48
2019-05-22T05:32:05.807Z,-47
2019-05-22T05:32:35.777Z,-44
2019-05-22T05:33:05.747Z,-48
2019-05-22T05:33:35.799Z,-81
2019-05-22T05:34:05.800Z,-59
2019-05-22T05:34:35.799Z,-55
2019-05-22T05:35:05.862Z,-56
2019-05-22T05:35:35.794Z,-103
2019-05-22T05:36:05.956Z,-73
2019-05-22T05:36:36.037Z,-44
2019-05-22T05:37:05.861Z,-45
2019-05-22T05:37:35.883Z,-40
2019-05-22T05:38:06.164Z,-38
2019-05-22T05:38:35.935Z,-37
2019-05-22T05:39:05.855Z,-36
2019-05-22T05:39:35.885Z,-38
2019-05-22T05:40:06.143Z,-37
2019-05-22T05:40:36.088Z,-37
2019-05-22T05:41:06.210Z,-38
2019-05-22T05:41:36.070Z,-36
2019-05-22T05:42:06.139Z,-33
2019-05-22T05:42:35.935Z,-32
2019-05-22T05:43:06.016Z,-30
2019-05-22T05:43:36.002Z,-30
2019-05-22T05:44:06.182Z,-29
2019-05-22T05:44:36.158Z,-26
2019-05-22T05:45:06.233Z,-26
2019-05-22T05:45:36.158Z,-22
2019-05-22T05:46:06.095Z,-25
2019-05-22T05:46:36.160Z,-38
2019-05-22T05:47:06.153Z,-38
2019-05-22T05:47:36.115Z,-30
2019-05-22T05:48:06.361Z,-27
2019-05-22T05:48:36.258Z,-27
2019-05-22T05:49:06.286Z,-27
2019-05-22T05:49:36.272Z,-22
2019-05-22T05:50:06.230Z,-22
2019-05-22T05:50:39.871Z,-20
2019-05-22T05:51:06.213Z,-20
2019-05-22T05:51:36.242Z,-158
2019-05-22T05:52:06.295Z,-158
2019-05-22T05:52:36.243Z,-86
2019-05-22T05:53:06.299Z,-54
2019-05-22T05:53:36.237Z,-25
2019-05-22T05:54:06.325Z,-21
2019-05-22T05:54:36.236Z,-10
2019-05-22T05:55:06.517Z,-9
2019-05-22T05:55:36.340Z,-11
2019-05-22T05:56:06.532Z,-171
2019-05-22T05:56:36.514Z,-174
2019-05-22T05:57:06.316Z,-174
2019-05-22T05:58:06.611Z,-156
2019-05-22T05:58:36.485Z,-155
2019-05-22T05:59:06.462Z,-165
2019-05-22T05:59:36.675Z,-161
2019-05-22T06:00:06.613Z,-157
2019-05-22T06:00:36.706Z,-154
2019-05-22T06:01:06.722Z,-143
2019-05-22T06:02:06.629Z,-144
2019-05-22T06:02:36.596Z,-147
2019-05-22T06:03:06.585Z,-150
2019-05-22T06:03:36.761Z,-192
2019-05-22T06:04:06.810Z,-197
2019-05-22T06:04:36.774Z,-188
2019-05-22T06:05:06.966Z,-176
2019-05-22T06:05:37.036Z,-191
2019-05-22T06:06:06.679Z,-192
2019-05-22T06:06:36.757Z,-176
2019-05-22T06:07:06.730Z,-216
2019-05-22T06:07:36.794Z,-178
2019-05-22T06:08:06.931Z,-186
2019-05-22T06:08:37.026Z,-158
2019-05-22T06:09:07.112Z,-153
2019-05-22T06:09:37.012Z,-234
2019-05-22T06:10:07.056Z,-248
2019-05-22T06:10:36.891Z,-172
2019-05-22T06:11:06.908Z,-162
2019-05-22T06:11:36.995Z,-164
2019-05-22T06:12:06.888Z,-162
2019-05-22T06:12:36.972Z,-149
2019-05-22T06:13:06.984Z,-147
2019-05-22T06:13:36.948Z,-143
2019-05-22T06:14:06.918Z,-127
2019-05-22T06:14:37.028Z,-136
2019-05-22T06:15:06.968Z,-139
2019-05-22T06:15:46.247Z,-136
2019-05-22T06:16:06.998Z,-128
2019-05-22T06:16:37.120Z,-192
2019-05-22T06:17:07.241Z,-162
2019-05-22T06:17:37.020Z,-159
2019-05-22T06:18:06.997Z,-156
2019-05-22T06:18:36.994Z,-152
2019-05-22T06:19:07.061Z,-136
2019-05-22T06:19:37.127Z,-132
2019-05-22T06:20:37.298Z,-163
2019-05-22T06:21:07.359Z,-142
2019-05-22T06:21:37.139Z,-138
2019-05-22T06:22:07.186Z,-144
2019-05-22T06:22:37.144Z,-122
2019-05-22T06:23:07.233Z,-122
2019-05-22T06:23:37.312Z,-121
2019-05-22T06:24:07.445Z,-120
2019-05-22T06:24:37.494Z,-122
2019-05-22T06:25:07.524Z,-134
2019-05-22T06:25:37.510Z,-126
2019-05-22T06:26:07.358Z,-289
2019-05-22T06:26:37.259Z,-299
2019-05-22T06:27:07.458Z,-203
2019-05-22T06:27:37.419Z,-143
2019-05-22T06:28:07.622Z,-114
2019-05-22T06:28:37.555Z,-124
2019-05-22T06:29:07.728Z,-117
2019-05-22T06:29:37.368Z,-117
2019-05-22T06:30:07.449Z,-115
2019-05-22T06:30:37.391Z,-120
2019-05-22T06:31:07.458Z,-120
2019-05-22T06:31:37.535Z,-121
2019-05-22T06:32:07.431Z,-118
2019-05-22T06:32:37.437Z,-131
2019-05-22T06:33:07.559Z,-133
2019-05-22T06:33:37.451Z,-116
2019-05-22T06:34:07.487Z,-97
2019-05-22T06:34:37.416Z,-95
2019-05-22T06:35:07.492Z,-105
2019-05-22T06:35:37.503Z,-92
2019-05-22T06:36:07.645Z,-103
2019-05-22T06:36:37.704Z,-71
2019-05-22T06:37:07.579Z,-53
2019-05-22T06:37:37.553Z,-53
2019-05-22T06:38:07.603Z,-65
2019-05-22T06:38:37.598Z,-64
2019-05-22T06:39:07.790Z,-63
2019-05-22T06:39:37.777Z,-60
2019-05-22T06:40:07.844Z,-70
2019-05-22T06:40:38.005Z,-76
2019-05-22T06:41:07.841Z,-71
2019-05-22T06:41:37.719Z,-76
2019-05-22T06:42:07.850Z,-55
2019-05-22T06:42:37.772Z,-58
2019-05-22T06:43:07.950Z,-63
2019-05-22T06:43:37.826Z,-183
2019-05-22T06:44:08.000Z,-141
2019-05-22T06:44:38.037Z,-74
2019-05-22T06:45:07.953Z,-89
2019-05-22T06:45:37.796Z,-89
2019-05-22T06:46:07.777Z,-136
2019-05-22T06:46:38.364Z,-101
2019-05-22T06:47:07.963Z,-64
2019-05-22T06:48:08.206Z,-62
2019-05-22T06:48:38.174Z,-48
2019-05-22T06:49:07.907Z,-59
2019-05-22T06:49:37.985Z,-57
2019-05-22T06:50:07.935Z,-44
2019-05-22T06:50:37.915Z,-31
2019-05-22T06:51:18.844Z,-33
2019-05-22T06:51:38.274Z,-27
2019-05-22T06:52:07.979Z,-25
2019-05-22T06:52:38.019Z,-19
2019-05-22T06:53:10.073Z,-15
2019-05-22T06:53:38.112Z,-46
2019-05-22T06:54:08.051Z,-33
2019-05-22T06:54:38.004Z,-22
2019-05-22T06:55:08.077Z,26
2019-05-22T06:55:38.098Z,29
2019-05-22T06:56:08.120Z,35
2019-05-22T06:56:38.072Z,33